sensor_id;sensor_type;location;lat;lon;timestamp;temperature;humidity
7325;DHT22;3703;48.016;7.802;2022-10-16T00:02:36;16.50;99.90
7325;DHT22;3703;48.016;7.802;2022-10-16T00:05:24;16.50;99.90
7325;DHT22;3703;48.016;7.802;2022-10-16T00:08:13;16.60;99.90
7325;DHT22;3703;48.016;7.802;2022-10-16T00:11:02;16.60;99.90
7325;DHT22;3703;48.016;7.802;2022-10-16T00:13:52;16.60;99.90
7325;DHT22;3703;48.016;7.802;2022-10-16T00:16:42;16.60;99.90
7325;DHT22;3703;48.016;7.802;2022-10-16T00:19:30;16.60;99.90
7325;DHT22;3703;48.016;7.802;2022-10-16T00:22:17;16.50;99.90
7325;DHT22;3703;48.016;7.802;2022-10-16T00:25:07;16.50;99.90
7325;DHT22;3703;48.016;7.802;2022-10-16T00:27:55;16.40;99.90
7325;DHT22;3703;48.016;7.802;2022-10-16T00:30:42;16.40;99.90
7325;DHT22;3703;48.016;7.802;2022-10-16T00:33:30;16.20;99.90
7325;DHT22;3703;48.016;7.802;2022-10-16T00:36:19;16.20;99.90
7325;DHT22;3703;48.016;7.802;2022-10-16T00:39:07;16.30;99.90
7325;DHT22;3703;48.016;7.802;2022-10-16T00:41:56;16.10;99.90
7325;DHT22;3703;48.016;7.802;2022-10-16T00:44:47;16.10;99.90
7325;DHT22;3703;48.016;7.802;2022-10-16T00:47:41;16.10;99.90
7325;DHT22;3703;48.016;7.802;2022-10-16T00:50:34;16.00;99.90
7325;DHT22;3703;48.016;7.802;2022-10-16T00:53:21;16.10;99.90
7325;DHT22;3703;48.016;7.802;2022-10-16T00:56:09;16.20;99.90
7325;DHT22;3703;48.016;7.802;2022-10-16T00:58:59;16.20;99.90
7325;DHT22;3703;48.016;7.802;2022-10-16T01:01:49;16.20;99.90
7325;DHT22;3703;48.016;7.802;2022-10-16T01:04:38;16.10;99.90
7325;DHT22;3703;48.016;7.802;2022-10-16T01:07:36;16.10;99.90
7325;DHT22;3703;48.016;7.802;2022-10-16T01:10:35;16.10;99.90
7325;DHT22;3703;48.016;7.802;2022-10-16T01:13:29;16.00;99.90
7325;DHT22;3703;48.016;7.802;2022-10-16T01:16:28;16.00;99.90
7325;DHT22;3703;48.016;7.802;2022-10-16T01:19:26;16.10;99.90
7325;DHT22;3703;48.016;7.802;2022-10-16T01:22:25;16.00;99.90
7325;DHT22;3703;48.016;7.802;2022-10-16T01:25:28;15.00;99.90
7325;DHT22;3703;48.016;7.802;2022-10-16T01:28:25;15.90;99.90
7325;DHT22;3703;48.016;7.802;2022-10-16T01:31:18;16.00;99.90
7325;DHT22;3703;48.016;7.802;2022-10-16T01:34:11;15.90;99.90
7325;DHT22;3703;48.016;7.802;2022-10-16T01:37:07;15.60;99.90
7325;DHT22;3703;48.016;7.802;2022-10-16T01:39:59;15.60;99.90
7325;DHT22;3703;48.016;7.802;2022-10-16T01:42:52;15.60;99.90
7325;DHT22;3703;48.016;7.802;2022-10-16T01:45:44;15.60;99.90
7325;DHT22;3703;48.016;7.802;2022-10-16T01:48:33;15.60;99.90
7325;DHT22;3703;48.016;7.802;2022-10-16T01:51:22;15.60;99.90
7325;DHT22;3703;48.016;7.802;2022-10-16T01:54:11;15.60;99.90
7325;DHT22;3703;48.016;7.802;2022-10-16T01:57:02;15.60;99.90
7325;DHT22;3703;48.016;7.802;2022-10-16T01:59:54;15.60;99.90
7325;DHT22;3703;48.016;7.802;2022-10-16T02:02:48;15.60;99.90
7325;DHT22;3703;48.016;7.802;2022-10-16T02:05:39;15.70;99.90
7325;DHT22;3703;48.016;7.802;2022-10-16T02:08:30;15.60;99.90
7325;DHT22;3703;48.016;7.802;2022-10-16T02:11:17;15.70;99.90
7325;DHT22;3703;48.016;7.802;2022-10-16T02:14:06;15.80;99.90
7325;DHT22;3703;48.016;7.802;2022-10-16T02:16:54;15.70;99.90
7325;DHT22;3703;48.016;7.802;2022-10-16T02:19:43;15.70;99.90
7325;DHT22;3703;48.016;7.802;2022-10-16T02:22:35;15.70;99.90
7325;DHT22;3703;48.016;7.802;2022-10-16T02:25:29;15.70;99.90
7325;DHT22;3703;48.016;7.802;2022-10-16T02:28:21;15.70;99.90
7325;DHT22;3703;48.016;7.802;2022-10-16T02:31:14;15.80;99.90
7325;DHT22;3703;48.016;7.802;2022-10-16T02:34:06;15.80;99.90
7325;DHT22;3703;48.016;7.802;2022-10-16T02:36:56;15.60;99.90
7325;DHT22;3703;48.016;7.802;2022-10-16T02:39:45;15.60;99.90
7325;DHT22;3703;48.016;7.802;2022-10-16T02:42:34;15.60;99.90
7325;DHT22;3703;48.016;7.802;2022-10-16T02:45:23;15.60;99.90
7325;DHT22;3703;48.016;7.802;2022-10-16T02:48:11;15.60;99.90
7325;DHT22;3703;48.016;7.802;2022-10-16T02:50:58;15.60;99.90
7325;DHT22;3703;48.016;7.802;2022-10-16T02:53:47;15.60;99.90
7325;DHT22;3703;48.016;7.802;2022-10-16T02:56:34;15.60;99.90
7325;DHT22;3703;48.016;7.802;2022-10-16T02:59:22;15.60;99.90
7325;DHT22;3703;48.016;7.802;2022-10-16T03:02:10;15.60;99.90
7325;DHT22;3703;48.016;7.802;2022-10-16T03:04:57;15.50;99.90
7325;DHT22;3703;48.016;7.802;2022-10-16T03:07:45;15.50;99.90
7325;DHT22;3703;48.016;7.802;2022-10-16T03:10:34;15.40;99.90
7325;DHT22;3703;48.016;7.802;2022-10-16T03:13:21;15.50;99.90
7325;DHT22;3703;48.016;7.802;2022-10-16T03:16:09;15.50;99.90
7325;DHT22;3703;48.016;7.802;2022-10-16T03:18:57;15.50;99.90
7325;DHT22;3703;48.016;7.802;2022-10-16T03:21:44;15.50;99.90
7325;DHT22;3703;48.016;7.802;2022-10-16T03:24:31;15.50;99.90
7325;DHT22;3703;48.016;7.802;2022-10-16T03:27:21;15.40;99.90
7325;DHT22;3703;48.016;7.802;2022-10-16T03:30:09;15.50;99.90
7325;DHT22;3703;48.016;7.802;2022-10-16T03:32:57;15.50;99.90
7325;DHT22;3703;48.016;7.802;2022-10-16T03:35:51;15.40;99.90
7325;DHT22;3703;48.016;7.802;2022-10-16T03:38:40;15.40;99.90
7325;DHT22;3703;48.016;7.802;2022-10-16T03:41:27;15.50;99.90
7325;DHT22;3703;48.016;7.802;2022-10-16T03:44:16;15.50;99.90
7325;DHT22;3703;48.016;7.802;2022-10-16T03:47:03;15.50;99.90
7325;DHT22;3703;48.016;7.802;2022-10-16T03:49:51;15.40;99.90
7325;DHT22;3703;48.016;7.802;2022-10-16T03:52:38;15.50;99.90
7325;DHT22;3703;48.016;7.802;2022-10-16T03:55:26;15.50;99.90
7325;DHT22;3703;48.016;7.802;2022-10-16T03:58:13;15.60;99.90
7325;DHT22;3703;48.016;7.802;2022-10-16T04:01:02;15.60;99.90
7325;DHT22;3703;48.016;7.802;2022-10-16T04:03:50;15.70;99.90
7325;DHT22;3703;48.016;7.802;2022-10-16T04:06:37;15.80;99.90
7325;DHT22;3703;48.016;7.802;2022-10-16T04:09:25;15.80;99.90
7325;DHT22;3703;48.016;7.802;2022-10-16T04:12:13;15.80;99.90
7325;DHT22;3703;48.016;7.802;2022-10-16T04:15:00;15.80;99.90
7325;DHT22;3703;48.016;7.802;2022-10-16T04:17:49;15.90;99.90
7325;DHT22;3703;48.016;7.802;2022-10-16T04:20:37;15.90;99.90
7325;DHT22;3703;48.016;7.802;2022-10-16T04:23:24;15.90;99.90
7325;DHT22;3703;48.016;7.802;2022-10-16T04:26:12;15.90;99.90
7325;DHT22;3703;48.016;7.802;2022-10-16T04:28:59;15.90;99.90
7325;DHT22;3703;48.016;7.802;2022-10-16T04:31:47;15.90;99.90
7325;DHT22;3703;48.016;7.802;2022-10-16T04:34:36;16.00;99.90
7325;DHT22;3703;48.016;7.802;2022-10-16T04:37:24;16.00;99.90
7325;DHT22;3703;48.016;7.802;2022-10-16T04:40:12;15.90;99.90
7325;DHT22;3703;48.016;7.802;2022-10-16T04:43:00;15.90;99.90
7325;DHT22;3703;48.016;7.802;2022-10-16T04:45:48;15.80;99.90
7325;DHT22;3703;48.016;7.802;2022-10-16T04:48:36;15.80;99.90
7325;DHT22;3703;48.016;7.802;2022-10-16T04:51:25;15.80;99.90
7325;DHT22;3703;48.016;7.802;2022-10-16T04:54:13;15.90;99.90
7325;DHT22;3703;48.016;7.802;2022-10-16T04:57:01;15.80;99.90
7325;DHT22;3703;48.016;7.802;2022-10-16T04:59:50;15.80;99.90
7325;DHT22;3703;48.016;7.802;2022-10-16T05:02:38;15.80;99.90
7325;DHT22;3703;48.016;7.802;2022-10-16T05:05:25;15.80;99.90
7325;DHT22;3703;48.016;7.802;2022-10-16T05:08:15;15.70;99.90
7325;DHT22;3703;48.016;7.802;2022-10-16T05:11:03;16.00;99.90
7325;DHT22;3703;48.016;7.802;2022-10-16T05:13:51;15.80;99.90
7325;DHT22;3703;48.016;7.802;2022-10-16T05:16:38;15.80;99.90
7325;DHT22;3703;48.016;7.802;2022-10-16T05:19:26;15.80;99.90
7325;DHT22;3703;48.016;7.802;2022-10-16T05:22:13;15.70;99.90
7325;DHT22;3703;48.016;7.802;2022-10-16T05:25:03;15.60;99.90
7325;DHT22;3703;48.016;7.802;2022-10-16T05:27:51;15.60;99.90
7325;DHT22;3703;48.016;7.802;2022-10-16T05:30:38;15.60;99.90
7325;DHT22;3703;48.016;7.802;2022-10-16T05:33:26;15.50;99.90
7325;DHT22;3703;48.016;7.802;2022-10-16T05:36:14;15.50;99.90
7325;DHT22;3703;48.016;7.802;2022-10-16T05:39:01;15.40;99.90
7325;DHT22;3703;48.016;7.802;2022-10-16T05:41:51;15.40;99.90
7325;DHT22;3703;48.016;7.802;2022-10-16T05:44:38;15.50;99.90
7325;DHT22;3703;48.016;7.802;2022-10-16T05:47:26;15.50;99.90
7325;DHT22;3703;48.016;7.802;2022-10-16T05:50:14;15.60;99.90
7325;DHT22;3703;48.016;7.802;2022-10-16T05:53:01;15.60;99.90
7325;DHT22;3703;48.016;7.802;2022-10-16T05:55:52;15.70;99.90
7325;DHT22;3703;48.016;7.802;2022-10-16T05:58:41;15.70;99.90
7325;DHT22;3703;48.016;7.802;2022-10-16T06:01:30;15.70;99.90
7325;DHT22;3703;48.016;7.802;2022-10-16T06:04:17;15.70;99.90
7325;DHT22;3703;48.016;7.802;2022-10-16T06:07:05;15.80;99.90
7325;DHT22;3703;48.016;7.802;2022-10-16T06:09:53;15.80;99.90
7325;DHT22;3703;48.016;7.802;2022-10-16T06:12:40;15.80;99.90
7325;DHT22;3703;48.016;7.802;2022-10-16T06:15:29;15.70;99.90
7325;DHT22;3703;48.016;7.802;2022-10-16T06:18:17;15.80;99.90
7325;DHT22;3703;48.016;7.802;2022-10-16T06:21:08;16.00;99.90
7325;DHT22;3703;48.016;7.802;2022-10-16T06:23:57;16.00;99.90
7325;DHT22;3703;48.016;7.802;2022-10-16T06:26:44;16.00;99.90
7325;DHT22;3703;48.016;7.802;2022-10-16T06:29:32;16.00;99.90
7325;DHT22;3703;48.016;7.802;2022-10-16T06:32:21;15.90;99.90
7325;DHT22;3703;48.016;7.802;2022-10-16T06:35:08;15.20;99.90
7325;DHT22;3703;48.016;7.802;2022-10-16T06:37:56;15.90;99.90
7325;DHT22;3703;48.016;7.802;2022-10-16T06:40:43;15.90;99.90
7325;DHT22;3703;48.016;7.802;2022-10-16T06:43:32;15.90;99.90
7325;DHT22;3703;48.016;7.802;2022-10-16T06:46:22;15.80;99.90
7325;DHT22;3703;48.016;7.802;2022-10-16T06:49:12;15.80;99.90
7325;DHT22;3703;48.016;7.802;2022-10-16T06:52:02;15.80;99.90
7325;DHT22;3703;48.016;7.802;2022-10-16T06:54:49;15.80;99.90
7325;DHT22;3703;48.016;7.802;2022-10-16T06:57:37;15.80;99.90
7325;DHT22;3703;48.016;7.802;2022-10-16T07:00:24;16.00;99.90
7325;DHT22;3703;48.016;7.802;2022-10-16T07:03:12;15.90;99.90
7325;DHT22;3703;48.016;7.802;2022-10-16T07:06:04;16.00;99.90
7325;DHT22;3703;48.016;7.802;2022-10-16T07:08:53;15.80;99.90
7325;DHT22;3703;48.016;7.802;2022-10-16T07:11:41;15.80;99.90
7325;DHT22;3703;48.016;7.802;2022-10-16T07:14:28;15.90;99.90
7325;DHT22;3703;48.016;7.802;2022-10-16T07:17:16;15.90;99.90
7325;DHT22;3703;48.016;7.802;2022-10-16T07:20:05;15.90;99.90
7325;DHT22;3703;48.016;7.802;2022-10-16T07:22:54;15.90;99.90
7325;DHT22;3703;48.016;7.802;2022-10-16T07:25:42;16.00;99.90
7325;DHT22;3703;48.016;7.802;2022-10-16T07:28:30;16.00;99.90
7325;DHT22;3703;48.016;7.802;2022-10-16T07:31:19;16.00;99.90
7325;DHT22;3703;48.016;7.802;2022-10-16T07:34:08;16.10;99.90
7325;DHT22;3703;48.016;7.802;2022-10-16T07:36:55;16.20;99.90
7325;DHT22;3703;48.016;7.802;2022-10-16T07:39:44;16.20;99.90
7325;DHT22;3703;48.016;7.802;2022-10-16T07:42:31;16.20;99.90
7325;DHT22;3703;48.016;7.802;2022-10-16T07:45:19;16.30;99.90
7325;DHT22;3703;48.016;7.802;2022-10-16T07:48:07;16.30;99.90
7325;DHT22;3703;48.016;7.802;2022-10-16T07:50:57;16.50;99.90
7325;DHT22;3703;48.016;7.802;2022-10-16T07:53:46;16.60;99.90
7325;DHT22;3703;48.016;7.802;2022-10-16T07:56:35;16.50;99.90
7325;DHT22;3703;48.016;7.802;2022-10-16T07:59:22;16.50;99.90
7325;DHT22;3703;48.016;7.802;2022-10-16T08:02:10;16.60;99.90
7325;DHT22;3703;48.016;7.802;2022-10-16T08:04:58;16.70;99.90
7325;DHT22;3703;48.016;7.802;2022-10-16T08:07:48;16.80;99.90
7325;DHT22;3703;48.016;7.802;2022-10-16T08:10:36;16.90;99.90
7325;DHT22;3703;48.016;7.802;2022-10-16T08:13:25;17.10;99.90
7325;DHT22;3703;48.016;7.802;2022-10-16T08:16:13;17.20;99.90
7325;DHT22;3703;48.016;7.802;2022-10-16T08:19:00;17.30;99.90
7325;DHT22;3703;48.016;7.802;2022-10-16T08:21:48;17.40;99.90
7325;DHT22;3703;48.016;7.802;2022-10-16T08:24:36;17.40;99.90
7325;DHT22;3703;48.016;7.802;2022-10-16T08:27:24;17.50;99.90
7325;DHT22;3703;48.016;7.802;2022-10-16T08:30:13;17.60;99.90
7325;DHT22;3703;48.016;7.802;2022-10-16T08:33:02;17.80;99.90
7325;DHT22;3703;48.016;7.802;2022-10-16T08:35:53;17.90;99.90
7325;DHT22;3703;48.016;7.802;2022-10-16T08:38:40;18.00;99.90
7325;DHT22;3703;48.016;7.802;2022-10-16T08:45:32;18.20;99.90
7325;DHT22;3703;48.016;7.802;2022-10-16T08:48:26;18.30;99.90
7325;DHT22;3703;48.016;7.802;2022-10-16T08:51:20;18.40;99.90
7325;DHT22;3703;48.016;7.802;2022-10-16T08:54:21;18.40;99.90
7325;DHT22;3703;48.016;7.802;2022-10-16T08:57:16;18.50;99.90
7325;DHT22;3703;48.016;7.802;2022-10-16T09:00:11;18.50;99.90
7325;DHT22;3703;48.016;7.802;2022-10-16T09:03:13;18.60;99.90
7325;DHT22;3703;48.016;7.802;2022-10-16T09:06:21;18.70;99.90
7325;DHT22;3703;48.016;7.802;2022-10-16T09:09:26;18.80;99.90
7325;DHT22;3703;48.016;7.802;2022-10-16T09:12:34;18.90;99.90
7325;DHT22;3703;48.016;7.802;2022-10-16T09:15:29;19.00;99.90
7325;DHT22;3703;48.016;7.802;2022-10-16T09:18:25;19.00;99.90
7325;DHT22;3703;48.016;7.802;2022-10-16T09:21:20;19.10;99.90
7325;DHT22;3703;48.016;7.802;2022-10-16T09:24:12;19.20;99.90
7325;DHT22;3703;48.016;7.802;2022-10-16T09:27:01;19.30;99.90
7325;DHT22;3703;48.016;7.802;2022-10-16T09:29:49;19.50;99.90
7325;DHT22;3703;48.016;7.802;2022-10-16T09:32:38;19.60;99.90
7325;DHT22;3703;48.016;7.802;2022-10-16T09:35:32;20.10;99.90
7325;DHT22;3703;48.016;7.802;2022-10-16T09:38:26;20.60;99.90
7325;DHT22;3703;48.016;7.802;2022-10-16T09:41:17;20.80;99.90
7325;DHT22;3703;48.016;7.802;2022-10-16T09:44:17;21.00;99.90
7325;DHT22;3703;48.016;7.802;2022-10-16T09:47:14;21.70;99.90
7325;DHT22;3703;48.016;7.802;2022-10-16T09:50:05;22.80;99.90
7325;DHT22;3703;48.016;7.802;2022-10-16T09:53:15;23.00;99.90
7325;DHT22;3703;48.016;7.802;2022-10-16T09:56:05;23.40;99.90
7325;DHT22;3703;48.016;7.802;2022-10-16T09:58:54;23.10;99.90
7325;DHT22;3703;48.016;7.802;2022-10-16T10:01:45;22.90;99.90
7325;DHT22;3703;48.016;7.802;2022-10-16T10:04:48;22.50;99.90
7325;DHT22;3703;48.016;7.802;2022-10-16T10:07:42;22.50;99.90
7325;DHT22;3703;48.016;7.802;2022-10-16T10:10:37;22.50;99.90
7325;DHT22;3703;48.016;7.802;2022-10-16T10:13:29;22.70;99.90
7325;DHT22;3703;48.016;7.802;2022-10-16T10:16:23;22.60;99.90
7325;DHT22;3703;48.016;7.802;2022-10-16T10:19:15;22.40;99.90
7325;DHT22;3703;48.016;7.802;2022-10-16T10:22:16;22.40;99.90
7325;DHT22;3703;48.016;7.802;2022-10-16T10:28:45;22.50;99.90
7325;DHT22;3703;48.016;7.802;2022-10-16T10:31:42;22.60;99.90
7325;DHT22;3703;48.016;7.802;2022-10-16T10:34:41;22.40;99.90
7325;DHT22;3703;48.016;7.802;2022-10-16T10:38:00;22.40;99.90
7325;DHT22;3703;48.016;7.802;2022-10-16T10:41:06;22.40;99.90
7325;DHT22;3703;48.016;7.802;2022-10-16T10:44:28;22.50;99.90
7325;DHT22;3703;48.016;7.802;2022-10-16T10:47:35;22.90;99.90
7325;DHT22;3703;48.016;7.802;2022-10-16T10:50:32;23.00;99.90
7325;DHT22;3703;48.016;7.802;2022-10-16T10:53:35;23.40;99.90
7325;DHT22;3703;48.016;7.802;2022-10-16T10:56:45;23.30;99.90
7325;DHT22;3703;48.016;7.802;2022-10-16T10:59:50;23.30;99.90
7325;DHT22;3703;48.016;7.802;2022-10-16T11:02:50;23.20;99.90
7325;DHT22;3703;48.016;7.802;2022-10-16T11:05:42;23.10;99.90
7325;DHT22;3703;48.016;7.802;2022-10-16T11:08:35;22.90;99.90
7325;DHT22;3703;48.016;7.802;2022-10-16T11:11:25;22.80;99.90
7325;DHT22;3703;48.016;7.802;2022-10-16T11:14:20;22.80;99.90
7325;DHT22;3703;48.016;7.802;2022-10-16T11:17:13;22.70;99.90
7325;DHT22;3703;48.016;7.802;2022-10-16T11:20:13;22.70;99.90
7325;DHT22;3703;48.016;7.802;2022-10-16T11:23:07;22.90;99.90
7325;DHT22;3703;48.016;7.802;2022-10-16T11:26:02;23.10;99.90
7325;DHT22;3703;48.016;7.802;2022-10-16T11:28:54;23.30;99.90
7325;DHT22;3703;48.016;7.802;2022-10-16T11:31:47;23.40;99.90
7325;DHT22;3703;48.016;7.802;2022-10-16T11:34:42;23.40;99.90
7325;DHT22;3703;48.016;7.802;2022-10-16T11:37:39;23.50;99.90
7325;DHT22;3703;48.016;7.802;2022-10-16T11:40:30;23.50;99.90
7325;DHT22;3703;48.016;7.802;2022-10-16T11:43:24;23.70;99.90
7325;DHT22;3703;48.016;7.802;2022-10-16T11:46:17;24.00;99.90
7325;DHT22;3703;48.016;7.802;2022-10-16T11:49:11;24.30;99.90
7325;DHT22;3703;48.016;7.802;2022-10-16T11:52:08;25.00;99.90
7325;DHT22;3703;48.016;7.802;2022-10-16T11:55:04;25.10;99.90
7325;DHT22;3703;48.016;7.802;2022-10-16T11:58:03;25.10;99.90
7325;DHT22;3703;48.016;7.802;2022-10-16T12:00:57;25.00;99.90
7325;DHT22;3703;48.016;7.802;2022-10-16T12:03:56;25.40;99.90
7325;DHT22;3703;48.016;7.802;2022-10-16T12:06:55;25.70;99.90
7325;DHT22;3703;48.016;7.802;2022-10-16T12:09:46;25.30;99.90
7325;DHT22;3703;48.016;7.802;2022-10-16T12:12:39;25.40;99.90
7325;DHT22;3703;48.016;7.802;2022-10-16T12:15:29;25.70;99.90
7325;DHT22;3703;48.016;7.802;2022-10-16T12:18:21;25.80;99.90
7325;DHT22;3703;48.016;7.802;2022-10-16T12:21:11;25.30;99.90
7325;DHT22;3703;48.016;7.802;2022-10-16T12:24:04;25.60;99.90
7325;DHT22;3703;48.016;7.802;2022-10-16T12:26:52;25.50;99.90
7325;DHT22;3703;48.016;7.802;2022-10-16T12:29:41;25.20;99.90
7325;DHT22;3703;48.016;7.802;2022-10-16T12:32:32;25.40;99.90
7325;DHT22;3703;48.016;7.802;2022-10-16T12:35:22;24.90;99.90
7325;DHT22;3703;48.016;7.802;2022-10-16T12:38:17;25.10;99.90
7325;DHT22;3703;48.016;7.802;2022-10-16T12:41:08;25.60;99.90
7325;DHT22;3703;48.016;7.802;2022-10-16T12:43:57;25.80;99.90
7325;DHT22;3703;48.016;7.802;2022-10-16T12:46:47;26.10;99.90
7325;DHT22;3703;48.016;7.802;2022-10-16T12:49:37;26.00;99.90
7325;DHT22;3703;48.016;7.802;2022-10-16T12:52:36;26.50;99.90
7325;DHT22;3703;48.016;7.802;2022-10-16T12:55:26;26.60;99.90
7325;DHT22;3703;48.016;7.802;2022-10-16T12:58:28;26.00;99.90
7325;DHT22;3703;48.016;7.802;2022-10-16T13:01:34;26.20;99.90
7325;DHT22;3703;48.016;7.802;2022-10-16T13:04:58;26.60;99.90
7325;DHT22;3703;48.016;7.802;2022-10-16T13:08:05;26.70;99.90
7325;DHT22;3703;48.016;7.802;2022-10-16T13:11:05;26.90;99.90
7325;DHT22;3703;48.016;7.802;2022-10-16T13:14:27;27.10;99.90
7325;DHT22;3703;48.016;7.802;2022-10-16T13:17:45;27.00;99.90
7325;DHT22;3703;48.016;7.802;2022-10-16T13:20:52;27.10;99.90
7325;DHT22;3703;48.016;7.802;2022-10-16T13:23:57;27.50;99.90
7325;DHT22;3703;48.016;7.802;2022-10-16T13:26:54;27.50;99.90
7325;DHT22;3703;48.016;7.802;2022-10-16T13:29:46;27.30;99.90
7325;DHT22;3703;48.016;7.802;2022-10-16T13:32:45;27.40;99.90
7325;DHT22;3703;48.016;7.802;2022-10-16T13:35:35;27.50;99.90
7325;DHT22;3703;48.016;7.802;2022-10-16T13:38:24;27.90;99.90
7325;DHT22;3703;48.016;7.802;2022-10-16T13:41:15;27.90;99.90
7325;DHT22;3703;48.016;7.802;2022-10-16T13:44:07;28.40;99.90
7325;DHT22;3703;48.016;7.802;2022-10-16T13:47:02;28.90;99.90
7325;DHT22;3703;48.016;7.802;2022-10-16T13:49:59;29.30;99.90
7325;DHT22;3703;48.016;7.802;2022-10-16T13:52:47;29.10;99.90
7325;DHT22;3703;48.016;7.802;2022-10-16T13:55:36;29.10;99.90
7325;DHT22;3703;48.016;7.802;2022-10-16T13:58:24;28.80;99.90
7325;DHT22;3703;48.016;7.802;2022-10-16T14:01:17;28.70;99.90
7325;DHT22;3703;48.016;7.802;2022-10-16T14:04:09;28.60;99.90
7325;DHT22;3703;48.016;7.802;2022-10-16T14:06:58;28.50;99.90
7325;DHT22;3703;48.016;7.802;2022-10-16T14:09:48;28.20;99.90
7325;DHT22;3703;48.016;7.802;2022-10-16T14:12:37;28.10;99.90
7325;DHT22;3703;48.016;7.802;2022-10-16T14:15:25;28.00;99.90
7325;DHT22;3703;48.016;7.802;2022-10-16T14:18:16;27.40;99.90
7325;DHT22;3703;48.016;7.802;2022-10-16T14:21:13;27.10;99.90
7325;DHT22;3703;48.016;7.802;2022-10-16T14:24:11;27.00;99.90
7325;DHT22;3703;48.016;7.802;2022-10-16T14:26:59;27.00;99.90
7325;DHT22;3703;48.016;7.802;2022-10-16T14:29:47;27.20;99.90
7325;DHT22;3703;48.016;7.802;2022-10-16T14:32:35;27.60;99.90
7325;DHT22;3703;48.016;7.802;2022-10-16T14:35:25;27.80;99.90
7325;DHT22;3703;48.016;7.802;2022-10-16T14:38:19;27.90;99.90
7325;DHT22;3703;48.016;7.802;2022-10-16T14:41:08;27.80;99.90
7325;DHT22;3703;48.016;7.802;2022-10-16T14:43:57;27.70;99.90
7325;DHT22;3703;48.016;7.802;2022-10-16T14:46:48;27.60;99.90
7325;DHT22;3703;48.016;7.802;2022-10-16T14:49:36;27.30;99.90
7325;DHT22;3703;48.016;7.802;2022-10-16T14:52:24;27.30;99.90
7325;DHT22;3703;48.016;7.802;2022-10-16T14:55:13;27.40;99.90
7325;DHT22;3703;48.016;7.802;2022-10-16T14:58:02;27.50;99.90
7325;DHT22;3703;48.016;7.802;2022-10-16T15:00:49;27.50;99.90
7325;DHT22;3703;48.016;7.802;2022-10-16T15:03:37;27.40;99.90
7325;DHT22;3703;48.016;7.802;2022-10-16T15:06:25;27.40;99.90
7325;DHT22;3703;48.016;7.802;2022-10-16T15:09:12;27.30;99.90
7325;DHT22;3703;48.016;7.802;2022-10-16T15:12:01;27.30;99.90
7325;DHT22;3703;48.016;7.802;2022-10-16T15:14:49;27.30;99.90
7325;DHT22;3703;48.016;7.802;2022-10-16T15:17:36;27.20;99.90
7325;DHT22;3703;48.016;7.802;2022-10-16T15:20:25;27.20;99.90
7325;DHT22;3703;48.016;7.802;2022-10-16T15:23:15;27.20;99.90
7325;DHT22;3703;48.016;7.802;2022-10-16T15:26:04;27.30;99.90
7325;DHT22;3703;48.016;7.802;2022-10-16T15:28:53;27.30;99.90
7325;DHT22;3703;48.016;7.802;2022-10-16T15:31:41;27.10;99.90
7325;DHT22;3703;48.016;7.802;2022-10-16T15:34:29;27.00;99.90
7325;DHT22;3703;48.016;7.802;2022-10-16T15:37:17;26.80;99.90
7325;DHT22;3703;48.016;7.802;2022-10-16T15:40:06;26.50;99.90
7325;DHT22;3703;48.016;7.802;2022-10-16T15:42:54;26.20;99.90
7325;DHT22;3703;48.016;7.802;2022-10-16T15:45:44;25.90;99.90
7325;DHT22;3703;48.016;7.802;2022-10-16T15:48:32;25.70;99.90
7325;DHT22;3703;48.016;7.802;2022-10-16T15:51:20;25.60;99.90
7325;DHT22;3703;48.016;7.802;2022-10-16T15:54:08;25.50;99.90
7325;DHT22;3703;48.016;7.802;2022-10-16T15:56:56;25.40;99.90
7325;DHT22;3703;48.016;7.802;2022-10-16T15:59:43;25.10;99.90
7325;DHT22;3703;48.016;7.802;2022-10-16T16:02:32;24.90;99.90
7325;DHT22;3703;48.016;7.802;2022-10-16T16:05:21;24.80;99.90
7325;DHT22;3703;48.016;7.802;2022-10-16T16:08:09;24.70;99.90
7325;DHT22;3703;48.016;7.802;2022-10-16T16:10:58;24.50;99.90
7325;DHT22;3703;48.016;7.802;2022-10-16T16:13:46;24.30;99.90
7325;DHT22;3703;48.016;7.802;2022-10-16T16:16:33;24.20;99.90
7325;DHT22;3703;48.016;7.802;2022-10-16T16:19:25;24.10;99.90
7325;DHT22;3703;48.016;7.802;2022-10-16T16:22:13;23.90;99.90
7325;DHT22;3703;48.016;7.802;2022-10-16T16:25:00;23.70;99.90
7325;DHT22;3703;48.016;7.802;2022-10-16T16:27:48;23.50;99.90
7325;DHT22;3703;48.016;7.802;2022-10-16T16:30:36;23.40;99.90
7325;DHT22;3703;48.016;7.802;2022-10-16T16:33:23;23.30;99.90
7325;DHT22;3703;48.016;7.802;2022-10-16T16:36:12;23.10;99.90
7325;DHT22;3703;48.016;7.802;2022-10-16T16:39:00;22.90;99.90
7325;DHT22;3703;48.016;7.802;2022-10-16T16:41:48;23.10;99.90
7325;DHT22;3703;48.016;7.802;2022-10-16T16:44:36;22.70;99.90
7325;DHT22;3703;48.016;7.802;2022-10-16T16:47:23;22.40;99.90
7325;DHT22;3703;48.016;7.802;2022-10-16T16:50:11;22.20;99.90
7325;DHT22;3703;48.016;7.802;2022-10-16T16:53:00;22.00;99.90
7325;DHT22;3703;48.016;7.802;2022-10-16T16:55:48;22.00;99.90
7325;DHT22;3703;48.016;7.802;2022-10-16T16:58:36;21.90;99.90
7325;DHT22;3703;48.016;7.802;2022-10-16T17:01:25;21.90;99.90
7325;DHT22;3703;48.016;7.802;2022-10-16T17:04:14;21.80;99.90
7325;DHT22;3703;48.016;7.802;2022-10-16T17:07:02;21.70;99.90
7325;DHT22;3703;48.016;7.802;2022-10-16T17:09:51;21.60;99.90
7325;DHT22;3703;48.016;7.802;2022-10-16T17:12:38;21.60;99.90
7325;DHT22;3703;48.016;7.802;2022-10-16T17:15:26;21.60;99.90
7325;DHT22;3703;48.016;7.802;2022-10-16T17:18:14;21.40;99.90
7325;DHT22;3703;48.016;7.802;2022-10-16T17:21:03;21.40;99.90
7325;DHT22;3703;48.016;7.802;2022-10-16T17:23:52;21.40;99.90
7325;DHT22;3703;48.016;7.802;2022-10-16T17:26:41;21.40;99.90
7325;DHT22;3703;48.016;7.802;2022-10-16T17:29:29;21.40;99.90
7325;DHT22;3703;48.016;7.802;2022-10-16T17:32:17;21.30;99.90
7325;DHT22;3703;48.016;7.802;2022-10-16T17:35:05;21.30;99.90
7325;DHT22;3703;48.016;7.802;2022-10-16T17:37:54;21.20;99.90
7325;DHT22;3703;48.016;7.802;2022-10-16T17:40:41;21.10;99.90
7325;DHT22;3703;48.016;7.802;2022-10-16T17:43:31;21.10;99.90
7325;DHT22;3703;48.016;7.802;2022-10-16T17:46:20;21.00;99.90
7325;DHT22;3703;48.016;7.802;2022-10-16T17:49:09;21.00;99.90
7325;DHT22;3703;48.016;7.802;2022-10-16T17:51:57;20.90;99.90
7325;DHT22;3703;48.016;7.802;2022-10-16T17:54:49;20.80;99.90
7325;DHT22;3703;48.016;7.802;2022-10-16T17:57:37;20.80;99.90
7325;DHT22;3703;48.016;7.802;2022-10-16T18:00:27;20.80;99.90
7325;DHT22;3703;48.016;7.802;2022-10-16T18:03:15;20.70;99.90
7325;DHT22;3703;48.016;7.802;2022-10-16T18:06:04;20.60;99.90
7325;DHT22;3703;48.016;7.802;2022-10-16T18:08:53;20.50;99.90
7325;DHT22;3703;48.016;7.802;2022-10-16T18:11:41;20.40;99.90
7325;DHT22;3703;48.016;7.802;2022-10-16T18:14:30;20.50;99.90
7325;DHT22;3703;48.016;7.802;2022-10-16T18:17:20;20.50;99.90
7325;DHT22;3703;48.016;7.802;2022-10-16T18:20:08;20.60;99.90
7325;DHT22;3703;48.016;7.802;2022-10-16T18:22:56;20.60;99.90
7325;DHT22;3703;48.016;7.802;2022-10-16T18:25:48;20.60;99.90
7325;DHT22;3703;48.016;7.802;2022-10-16T18:28:36;20.70;99.90
7325;DHT22;3703;48.016;7.802;2022-10-16T18:31:24;20.70;99.90
7325;DHT22;3703;48.016;7.802;2022-10-16T18:34:14;20.70;99.90
7325;DHT22;3703;48.016;7.802;2022-10-16T18:37:02;20.60;99.90
7325;DHT22;3703;48.016;7.802;2022-10-16T18:39:49;20.60;99.90
7325;DHT22;3703;48.016;7.802;2022-10-16T18:42:37;20.60;99.90
7325;DHT22;3703;48.016;7.802;2022-10-16T18:45:24;20.50;99.90